<?xml version="1.0" encoding="UTF-8" standalone="no" ?>
<gpx xmlns="http://www.topografix.com/GPX/1/1" xmlns:xsi="http://www.w3.org/2001/XMLSchema-instance" xsi:schemaLocation="http://www.topografix.com/GPX/1/1 http://www.topografix.com/GPX/1/1/gpx.xsd" version="1.1" creator="VisuGPX - https://www.visugpx.com">
  <metadata>
    <name>Etel_Plouhinec_12-19km</name>
    <desc><![CDATA[gnerando idor: 6224151_6224295_6533546]]></desc>
  </metadata>
  <trk>
    <name><![CDATA[Plouhinec_B1B3_17.3km-6224295]]></name>
    <extensions>
      <line xmlns="http://www.topografix.com/GPX/gpx_style/0/2">
        <color>00FF00</color>
        <width>4</width>
      </line>
    </extensions>
    <trkseg>
      <trkpt lat="47.68477" lon="-3.21232">
        <ele>4</ele>
        <time>2023-11-01T17:09:21Z</time>
      </trkpt>
      <trkpt lat="47.68454" lon="-3.21378">
        <ele>7</ele>
        <time>2023-11-01T17:11:36Z</time>
      </trkpt>
      <trkpt lat="47.68417" lon="-3.21408">
        <ele>9</ele>
        <time>2023-11-01T17:12:32Z</time>
      </trkpt>
      <trkpt lat="47.68425" lon="-3.21468">
        <ele>10</ele>
        <time>2023-11-01T17:13:27Z</time>
      </trkpt>
      <trkpt lat="47.68423" lon="-3.21519">
        <ele>11</ele>
        <time>2023-11-01T17:14:13Z</time>
      </trkpt>
      <trkpt lat="47.68382" lon="-3.21519">
        <ele>11</ele>
        <time>2023-11-01T17:15:08Z</time>
      </trkpt>
      <trkpt lat="47.68388" lon="-3.22099">
        <ele>11</ele>
        <time>2023-11-01T17:23:49Z</time>
      </trkpt>
      <trkpt lat="47.68446" lon="-3.22382">
        <ele>14</ele>
        <time>2023-11-01T17:28:14Z</time>
      </trkpt>
      <trkpt lat="47.68189" lon="-3.22455">
        <ele>16</ele>
        <time>2023-11-01T17:34:04Z</time>
      </trkpt>
      <trkpt lat="47.68171" lon="-3.22596">
        <ele>18</ele>
        <time>2023-11-01T17:36:13Z</time>
      </trkpt>
      <trkpt lat="47.68047" lon="-3.22704">
        <ele>17</ele>
        <time>2023-11-01T17:39:24Z</time>
      </trkpt>
      <trkpt lat="47.67851" lon="-3.22798">
        <ele>14</ele>
        <time>2023-11-01T17:43:59Z</time>
      </trkpt>
      <trkpt lat="47.67851" lon="-3.22987">
        <ele>13</ele>
        <time>2023-11-01T17:46:49Z</time>
      </trkpt>
      <trkpt lat="47.67562" lon="-3.23163">
        <ele>18</ele>
        <time>2023-11-01T17:53:46Z</time>
      </trkpt>
      <trkpt lat="47.67538" lon="-3.2333">
        <ele>16</ele>
        <time>2023-11-01T17:56:19Z</time>
      </trkpt>
      <trkpt lat="47.67536" lon="-3.23626">
        <ele>13</ele>
        <time>2023-11-01T18:00:45Z</time>
      </trkpt>
      <trkpt lat="47.67429" lon="-3.23897">
        <ele>11</ele>
        <time>2023-11-01T18:05:28Z</time>
      </trkpt>
      <trkpt lat="47.67434" lon="-3.2433">
        <ele>12</ele>
        <time>2023-11-01T18:11:57Z</time>
      </trkpt>
      <trkpt lat="47.67177" lon="-3.24305">
        <ele>10</ele>
        <time>2023-11-01T18:17:40Z</time>
      </trkpt>
      <trkpt lat="47.67148" lon="-3.24459">
        <ele>7</ele>
        <time>2023-11-01T18:20:04Z</time>
      </trkpt>
      <trkpt lat="47.6707" lon="-3.24712">
        <ele>7</ele>
        <time>2023-11-01T18:24:14Z</time>
      </trkpt>
      <trkpt lat="47.66914" lon="-3.24875">
        <ele>5</ele>
        <time>2023-11-01T18:28:29Z</time>
      </trkpt>
      <trkpt lat="47.667" lon="-3.24502">
        <ele>10</ele>
        <time>2023-11-01T18:35:49Z</time>
      </trkpt>
      <trkpt lat="47.66689" lon="-3.24412">
        <ele>10</ele>
        <time>2023-11-01T18:37:11Z</time>
      </trkpt>
      <trkpt lat="47.66567" lon="-3.24099">
        <ele>8</ele>
        <time>2023-11-01T18:42:36Z</time>
      </trkpt>
      <trkpt lat="47.66463" lon="-3.24116">
        <ele>9</ele>
        <time>2023-11-01T18:44:56Z</time>
      </trkpt>
      <trkpt lat="47.6646" lon="-3.23987">
        <ele>9</ele>
        <time>2023-11-01T18:46:52Z</time>
      </trkpt>
      <trkpt lat="47.66374" lon="-3.23953">
        <ele>10</ele>
        <time>2023-11-01T18:48:51Z</time>
      </trkpt>
      <trkpt lat="47.66267" lon="-3.23751">
        <ele>9</ele>
        <time>2023-11-01T18:52:42Z</time>
      </trkpt>
      <trkpt lat="47.66284" lon="-3.22596">
        <ele>10</ele>
        <time>2023-11-01T19:10:00Z</time>
      </trkpt>
      <trkpt lat="47.65955" lon="-3.22566">
        <ele>12</ele>
        <time>2023-11-01T19:17:20Z</time>
      </trkpt>
      <trkpt lat="47.65651" lon="-3.22695">
        <ele>5</ele>
        <time>2023-11-01T19:24:22Z</time>
      </trkpt>
      <trkpt lat="47.65657" lon="-3.21991">
        <ele>10</ele>
        <time>2023-11-01T19:34:54Z</time>
      </trkpt>
      <trkpt lat="47.65723" lon="-3.21721">
        <ele>9</ele>
        <time>2023-11-01T19:39:13Z</time>
      </trkpt>
      <trkpt lat="47.65885" lon="-3.21446">
        <ele>5</ele>
        <time>2023-11-01T19:44:41Z</time>
      </trkpt>
      <trkpt lat="47.65932" lon="-3.21416">
        <ele>6</ele>
        <time>2023-11-01T19:45:49Z</time>
      </trkpt>
      <trkpt lat="47.65897" lon="-3.21253">
        <ele>5</ele>
        <time>2023-11-01T19:48:23Z</time>
      </trkpt>
      <trkpt lat="47.65972" lon="-3.2118">
        <ele>4</ele>
        <time>2023-11-01T19:50:23Z</time>
      </trkpt>
      <trkpt lat="47.66189" lon="-3.21202">
        <ele>4</ele>
        <time>2023-11-01T19:55:13Z</time>
      </trkpt>
      <trkpt lat="47.66276" lon="-3.21421">
        <ele>3</ele>
        <time>2023-11-01T19:59:02Z</time>
      </trkpt>
      <trkpt lat="47.66414" lon="-3.21532">
        <ele>3</ele>
        <time>2023-11-01T20:02:31Z</time>
      </trkpt>
      <trkpt lat="47.66487" lon="-3.21455">
        <ele>1</ele>
        <time>2023-11-01T20:04:30Z</time>
      </trkpt>
      <trkpt lat="47.66452" lon="-3.21584">
        <ele>3</ele>
        <time>2023-11-01T20:06:35Z</time>
      </trkpt>
      <trkpt lat="47.66498" lon="-3.21721">
        <ele>1</ele>
        <time>2023-11-01T20:08:53Z</time>
      </trkpt>
      <trkpt lat="47.66515" lon="-3.21854">
        <ele>5</ele>
        <time>2023-11-01T20:10:55Z</time>
      </trkpt>
      <trkpt lat="47.6664" lon="-3.21897">
        <ele>6</ele>
        <time>2023-11-01T20:13:46Z</time>
      </trkpt>
      <trkpt lat="47.66663" lon="-3.21815">
        <ele>3</ele>
        <time>2023-11-01T20:15:06Z</time>
      </trkpt>
      <trkpt lat="47.66793" lon="-3.21674">
        <ele>2</ele>
        <time>2023-11-01T20:18:41Z</time>
      </trkpt>
      <trkpt lat="47.66862" lon="-3.21678">
        <ele>5</ele>
        <time>2023-11-01T20:20:13Z</time>
      </trkpt>
      <trkpt lat="47.6683" lon="-3.21571">
        <ele>3</ele>
        <time>2023-11-01T20:21:58Z</time>
      </trkpt>
      <trkpt lat="47.66859" lon="-3.21524">
        <ele>6</ele>
        <time>2023-11-01T20:22:55Z</time>
      </trkpt>
      <trkpt lat="47.66854" lon="-3.21412">
        <ele>1</ele>
        <time>2023-11-01T20:24:36Z</time>
      </trkpt>
      <trkpt lat="47.669" lon="-3.21382">
        <ele>2</ele>
        <time>2023-11-01T20:25:43Z</time>
      </trkpt>
      <trkpt lat="47.67102" lon="-3.21532">
        <ele>2</ele>
        <time>2023-11-01T20:30:45Z</time>
      </trkpt>
      <trkpt lat="47.6716" lon="-3.21682">
        <ele>5</ele>
        <time>2023-11-01T20:33:20Z</time>
      </trkpt>
      <trkpt lat="47.67284" lon="-3.21597">
        <ele>4</ele>
        <time>2023-11-01T20:36:22Z</time>
      </trkpt>
      <trkpt lat="47.67327" lon="-3.21708">
        <ele>5</ele>
        <time>2023-11-01T20:38:17Z</time>
      </trkpt>
      <trkpt lat="47.67455" lon="-3.21742">
        <ele>7</ele>
        <time>2023-11-01T20:41:11Z</time>
      </trkpt>
      <trkpt lat="47.67432" lon="-3.21506">
        <ele>7</ele>
        <time>2023-11-01T20:44:45Z</time>
      </trkpt>
      <trkpt lat="47.67261" lon="-3.21378">
        <ele>9</ele>
        <time>2023-11-01T20:49:01Z</time>
      </trkpt>
      <trkpt lat="47.67148" lon="-3.20949">
        <ele>4</ele>
        <time>2023-11-01T20:55:55Z</time>
      </trkpt>
      <trkpt lat="47.67221" lon="-3.20863">
        <ele>5</ele>
        <time>2023-11-01T20:57:59Z</time>
      </trkpt>
      <trkpt lat="47.67171" lon="-3.20743">
        <ele>4</ele>
        <time>2023-11-01T21:00:06Z</time>
      </trkpt>
      <trkpt lat="47.6716" lon="-3.20597">
        <ele>3</ele>
        <time>2023-11-01T21:02:18Z</time>
      </trkpt>
      <trkpt lat="47.67235" lon="-3.20524">
        <ele>1</ele>
        <time>2023-11-01T21:04:17Z</time>
      </trkpt>
      <trkpt lat="47.67299" lon="-3.20652">
        <ele>6</ele>
        <time>2023-11-01T21:06:41Z</time>
      </trkpt>
      <trkpt lat="47.67377" lon="-3.20708">
        <ele>4</ele>
        <time>2023-11-01T21:08:36Z</time>
      </trkpt>
      <trkpt lat="47.67432" lon="-3.20828">
        <ele>8</ele>
        <time>2023-11-01T21:10:47Z</time>
      </trkpt>
      <trkpt lat="47.67599" lon="-3.20884">
        <ele>4</ele>
        <time>2023-11-01T21:14:35Z</time>
      </trkpt>
      <trkpt lat="47.67692" lon="-3.20785">
        <ele>4</ele>
        <time>2023-11-01T21:17:08Z</time>
      </trkpt>
      <trkpt lat="47.67663" lon="-3.20601">
        <ele>4</ele>
        <time>2023-11-01T21:19:58Z</time>
      </trkpt>
      <trkpt lat="47.67683" lon="-3.20378">
        <ele>2</ele>
        <time>2023-11-01T21:23:20Z</time>
      </trkpt>
      <trkpt lat="47.67599" lon="-3.20369">
        <ele>1.8</ele>
        <time>2023-11-01T21:25:12Z</time>
      </trkpt>
      <trkpt lat="47.67544" lon="-3.20167">
        <ele>1</ele>
        <time>2023-11-01T21:28:28Z</time>
      </trkpt>
      <trkpt lat="47.67614" lon="-3.20129">
        <ele>4.2</ele>
        <time>2023-11-01T21:30:07Z</time>
      </trkpt>
      <trkpt lat="47.67689" lon="-3.2024">
        <ele>3.4</ele>
        <time>2023-11-01T21:32:29Z</time>
      </trkpt>
      <trkpt lat="47.67761" lon="-3.20292">
        <ele>4</ele>
        <time>2023-11-01T21:34:16Z</time>
      </trkpt>
      <trkpt lat="47.67836" lon="-3.2021">
        <ele>3</ele>
        <time>2023-11-01T21:36:20Z</time>
      </trkpt>
      <trkpt lat="47.67969" lon="-3.20198">
        <ele>3</ele>
        <time>2023-11-01T21:39:18Z</time>
      </trkpt>
      <trkpt lat="47.68105" lon="-3.20013">
        <ele>3.34</ele>
        <time>2023-11-01T21:43:24Z</time>
      </trkpt>
      <trkpt lat="47.68238" lon="-3.20052">
        <ele>3</ele>
        <time>2023-11-01T21:46:25Z</time>
      </trkpt>
      <trkpt lat="47.68301" lon="-3.20022">
        <ele>3</ele>
        <time>2023-11-01T21:47:53Z</time>
      </trkpt>
      <trkpt lat="47.68307" lon="-3.19837">
        <ele>2</ele>
        <time>2023-11-01T21:50:39Z</time>
      </trkpt>
      <trkpt lat="47.68385" lon="-3.19927">
        <ele>2</ele>
        <time>2023-11-01T21:52:51Z</time>
      </trkpt>
      <trkpt lat="47.68365" lon="-3.20022">
        <ele>2</ele>
        <time>2023-11-01T21:54:21Z</time>
      </trkpt>
      <trkpt lat="47.68373" lon="-3.20142">
        <ele>3</ele>
        <time>2023-11-01T21:56:09Z</time>
      </trkpt>
      <trkpt lat="47.68394" lon="-3.20223">
        <ele>3</ele>
        <time>2023-11-01T21:57:27Z</time>
      </trkpt>
      <trkpt lat="47.68373" lon="-3.20296">
        <ele>5</ele>
        <time>2023-11-01T21:58:38Z</time>
      </trkpt>
      <trkpt lat="47.68402" lon="-3.20378">
        <ele>2</ele>
        <time>2023-11-01T22:00:01Z</time>
      </trkpt>
      <trkpt lat="47.68382" lon="-3.20472">
        <ele>4</ele>
        <time>2023-11-01T22:01:30Z</time>
      </trkpt>
      <trkpt lat="47.68451" lon="-3.20541">
        <ele>2</ele>
        <time>2023-11-01T22:03:21Z</time>
      </trkpt>
      <trkpt lat="47.68434" lon="-3.20678">
        <ele>5</ele>
        <time>2023-11-01T22:05:26Z</time>
      </trkpt>
      <trkpt lat="47.68365" lon="-3.20687">
        <ele>5</ele>
        <time>2023-11-01T22:06:59Z</time>
      </trkpt>
      <trkpt lat="47.68327" lon="-3.20644">
        <ele>6</ele>
        <time>2023-11-01T22:08:02Z</time>
      </trkpt>
      <trkpt lat="47.68388" lon="-3.20725">
        <ele>4</ele>
        <time>2023-11-01T22:09:51Z</time>
      </trkpt>
      <trkpt lat="47.68434" lon="-3.20768">
        <ele>2</ele>
        <time>2023-11-01T22:11:04Z</time>
      </trkpt>
      <trkpt lat="47.68434" lon="-3.20914">
        <ele>2</ele>
        <time>2023-11-01T22:13:15Z</time>
      </trkpt>
      <trkpt lat="47.68405" lon="-3.21009">
        <ele>1</ele>
        <time>2023-11-01T22:14:49Z</time>
      </trkpt>
      <trkpt lat="47.68365" lon="-3.20991">
        <ele>2</ele>
        <time>2023-11-01T22:15:45Z</time>
      </trkpt>
      <trkpt lat="47.68405" lon="-3.21112">
        <ele>2</ele>
        <time>2023-11-01T22:17:46Z</time>
      </trkpt>
      <trkpt lat="47.68475" lon="-3.2115">
        <ele>2</ele>
        <time>2023-11-01T22:19:25Z</time>
      </trkpt>
      <trkpt lat="47.68475" lon="-3.21155">
        <ele>2</ele>
        <time>2023-11-01T22:19:30Z</time>
      </trkpt>
      <trkpt lat="47.66929" lon="-3.213">
        <time>2023-11-01T22:53:57Z</time>
      </trkpt>
    </trkseg>
  </trk>
</gpx>